createdAt,value
2022-07-29T00:00:46.864Z,69.07
2022-07-29T00:01:46.852Z,69.61
2022-07-29T00:02:46.879Z,69.92
2022-07-29T00:03:46.908Z,70.02
2022-07-29T00:04:46.812Z,69.61
2022-07-29T00:05:46.803Z,69.61
2022-07-29T00:06:46.786Z,70.62
2022-07-29T00:07:46.774Z,70.12
2022-07-29T00:08:46.756Z,70.76
2022-07-29T00:09:52.034Z,70.36
2022-07-29T00:10:47.777Z,70.96
2022-07-29T00:11:46.717Z,71.16
2022-07-29T00:12:46.716Z,71.03
2022-07-29T00:13:50.854Z,70.83
2022-07-29T00:14:46.682Z,70.73
2022-07-29T00:15:46.672Z,70.83
2022-07-29T00:16:46.702Z,70.62
2022-07-29T00:17:46.636Z,70.42
2022-07-29T00:18:46.615Z,70.73
2022-07-29T00:19:46.605Z,70.42
2022-07-29T00:20:46.596Z,70.52
2022-07-29T00:21:46.608Z,70.52
2022-07-29T00:22:46.581Z,70.42
2022-07-29T00:23:46.570Z,70.12
2022-07-29T00:24:46.555Z,70.42
2022-07-29T00:25:46.538Z,70.83
2022-07-29T00:26:46.542Z,71.03
2022-07-29T00:27:46.540Z,70.83
2022-07-29T00:28:46.496Z,70.93
2022-07-29T00:29:46.475Z,70.73
2022-07-29T00:30:46.466Z,70.62
2022-07-29T00:31:46.515Z,70.32
2022-07-29T00:32:46.466Z,70.65
2022-07-29T00:33:46.436Z,71.16
2022-07-29T00:34:46.438Z,71.67
2022-07-29T00:35:46.396Z,71.57
2022-07-29T00:36:46.388Z,71.97
2022-07-29T00:37:46.388Z,71.88
2022-07-29T00:38:46.380Z,71.97
2022-07-29T00:39:46.358Z,71.73
2022-07-29T00:40:46.352Z,71.26
2022-07-29T00:41:46.339Z,71.73
2022-07-29T00:42:46.358Z,71.53
2022-07-29T00:43:46.310Z,71.23
2022-07-29T00:44:46.314Z,71.33
2022-07-29T00:45:46.288Z,71.33
2022-07-29T00:46:46.299Z,71.23
2022-07-29T00:47:46.248Z,71.47
2022-07-29T00:48:46.325Z,71.57
2022-07-29T00:49:46.228Z,71.88
2022-07-29T00:50:46.259Z,71.88
2022-07-29T00:51:46.210Z,72.28
2022-07-29T00:52:46.191Z,72.17
2022-07-29T00:53:46.169Z,72.48
2022-07-29T00:54:46.150Z,72.08
2022-07-29T00:55:46.154Z,72.08
2022-07-29T00:56:46.138Z,72.28
2022-07-29T00:57:46.161Z,72.08
2022-07-29T00:58:46.090Z,72.28
2022-07-29T00:59:46.078Z,71.97
2022-07-29T01:00:46.251Z,72.48
2022-07-29T01:01:46.124Z,72.92
2022-07-29T01:02:46.082Z,73.32
2022-07-29T01:03:46.051Z,73.32
2022-07-29T01:04:46.031Z,72.92
2022-07-29T01:05:49.940Z,72.92
2022-07-29T01:06:47.025Z,73.43
2022-07-29T01:07:45.994Z,73.53
2022-07-29T01:08:45.964Z,73.12
2022-07-29T01:09:47.235Z,73.53
2022-07-29T01:10:45.931Z,73.83
2022-07-29T01:11:45.939Z,74.27
2022-07-29T01:12:45.910Z,74.17
2022-07-29T01:13:45.950Z,74.48
2022-07-29T01:14:52.978Z,74.48
2022-07-29T01:15:49.002Z,74.77
2022-07-29T01:16:45.949Z,74.37
2022-07-29T01:17:52.706Z,74.57
2022-07-29T01:18:46.904Z,74.88
2022-07-29T01:19:45.854Z,74.91
2022-07-29T01:20:45.848Z,75.32
2022-07-29T01:21:45.820Z,75.38
2022-07-29T01:22:45.818Z,75.08
2022-07-29T01:23:45.796Z,75.12
2022-07-29T01:24:45.777Z,75.32
2022-07-29T01:25:45.770Z,75.73
2022-07-29T01:26:45.762Z,75.62
2022-07-29T01:27:45.737Z,75.32
2022-07-29T01:28:45.717Z,75.52
2022-07-29T01:29:45.715Z,75.82
2022-07-29T01:30:45.700Z,76.23
2022-07-29T01:31:59.384Z,76.33
2022-07-29T01:34:32.809Z,76.47
2022-07-29T01:34:57.739Z,76.67
2022-07-29T01:35:57.752Z,77.01
2022-07-29T01:36:57.717Z,77.62
2022-07-29T01:37:57.719Z,78.27
2022-07-29T01:38:57.700Z,78.67
2022-07-29T01:39:57.689Z,78.88
2022-07-29T01:40:57.678Z,78.64
2022-07-29T01:41:57.661Z,78.33
2022-07-29T01:42:57.662Z,77.93
2022-07-29T01:43:57.642Z,77.72
2022-07-29T01:44:57.642Z,78.13
2022-07-29T01:45:57.621Z,77.93
2022-07-29T01:46:57.620Z,77.62
2022-07-29T01:47:57.580Z,77.62
2022-07-29T01:48:57.606Z,77.83
2022-07-29T01:49:57.554Z,77.72
2022-07-29T01:50:57.580Z,77.52
2022-07-29T01:51:57.520Z,77.72
2022-07-29T01:52:57.509Z,77.62
2022-07-29T01:53:57.499Z,77.72
2022-07-29T01:54:57.482Z,77.93
2022-07-29T01:55:57.470Z,77.83
2022-07-29T01:56:57.512Z,77.72
2022-07-29T01:57:57.454Z,77.83
2022-07-29T01:58:57.432Z,77.59
2022-07-29T01:59:57.422Z,77.48
2022-07-29T02:00:57.401Z,77.38
2022-07-29T02:01:57.427Z,77.59
2022-07-29T02:02:57.391Z,77.38
2022-07-29T02:03:57.361Z,77.38
2022-07-29T02:04:57.393Z,77.38
2022-07-29T02:05:57.344Z,77.62
2022-07-29T02:06:57.335Z,77.52
2022-07-29T02:07:57.354Z,77.83
2022-07-29T02:08:57.323Z,77.83
2022-07-29T02:09:57.294Z,77.48
2022-07-29T02:10:57.293Z,77.62
2022-07-29T02:11:57.292Z,77.83
2022-07-29T02:12:57.250Z,78.13
2022-07-29T02:13:57.250Z,78.03
2022-07-29T02:14:57.224Z,77.69
2022-07-29T02:15:57.414Z,77.48
2022-07-29T02:16:57.212Z,77.62
2022-07-29T02:17:57.187Z,77.89
2022-07-29T02:18:57.202Z,77.89
2022-07-29T02:19:57.152Z,77.59
2022-07-29T02:20:57.186Z,77.38
2022-07-29T02:21:57.144Z,77.18
2022-07-29T02:22:57.144Z,76.98
2022-07-29T02:23:57.116Z,77.08
2022-07-29T02:24:57.107Z,77.18
2022-07-29T02:25:57.086Z,77.59
2022-07-29T02:26:57.075Z,77.38
2022-07-29T02:27:57.055Z,77.62
2022-07-29T02:28:57.054Z,77.62
2022-07-29T02:29:57.023Z,77.93
2022-07-29T02:30:57.059Z,77.83
2022-07-29T02:31:57.053Z,78.13
2022-07-29T02:32:57.005Z,78.44
2022-07-29T02:33:57.001Z,78.33
2022-07-29T02:34:56.993Z,78.23
2022-07-29T02:35:56.941Z,77.93
2022-07-29T02:36:56.942Z,77.72
2022-07-29T02:37:56.934Z,77.89
2022-07-29T02:38:56.937Z,77.83
2022-07-29T02:39:56.895Z,77.83
2022-07-29T02:40:56.898Z,78.03
2022-07-29T02:41:56.879Z,78.33
2022-07-29T02:42:56.900Z,78.13
2022-07-29T02:43:56.845Z,78.03
2022-07-29T02:44:56.834Z,78.03
2022-07-29T02:45:56.942Z,77.99
2022-07-29T02:46:56.891Z,77.79
2022-07-29T02:47:56.785Z,77.79
2022-07-29T02:48:56.822Z,77.69
2022-07-29T02:49:56.790Z,77.38
2022-07-29T02:50:56.780Z,77.34
2022-07-29T02:51:56.764Z,76.94
2022-07-29T02:52:56.734Z,76.94
2022-07-29T02:53:56.716Z,77.04
2022-07-29T02:54:56.707Z,76.94
2022-07-29T02:55:56.687Z,76.84
2022-07-29T02:56:56.684Z,76.33
2022-07-29T02:57:56.678Z,76.33
2022-07-29T02:58:56.654Z,76.09
2022-07-29T02:59:56.656Z,76.09
2022-07-29T03:00:56.616Z,75.99
2022-07-29T03:01:56.659Z,75.89
2022-07-29T03:02:56.598Z,76.20
2022-07-29T03:03:56.604Z,75.99
2022-07-29T03:04:56.741Z,75.79
2022-07-29T03:05:56.576Z,75.79
2022-07-29T03:06:56.567Z,75.65
2022-07-29T03:07:56.564Z,75.35
2022-07-29T03:08:56.513Z,75.15
2022-07-29T03:09:56.501Z,75.15
2022-07-29T03:10:56.486Z,74.74
2022-07-29T03:11:56.494Z,74.84
2022-07-29T03:12:56.478Z,74.54
2022-07-29T03:13:56.446Z,74.74
2022-07-29T03:14:56.454Z,74.84
2022-07-29T03:15:56.518Z,74.64
2022-07-29T03:16:56.501Z,74.64
2022-07-29T03:17:56.468Z,75.04
2022-07-29T03:18:56.398Z,74.95
2022-07-29T03:19:56.380Z,74.44
2022-07-29T03:20:56.368Z,74.51
2022-07-29T03:21:56.357Z,74.40
2022-07-29T03:22:56.351Z,74.00
2022-07-29T03:23:56.341Z,74.30
2022-07-29T03:24:56.311Z,74.20
2022-07-29T03:25:56.306Z,74.30
2022-07-29T03:26:56.285Z,74.30
2022-07-29T03:27:56.258Z,74.10
2022-07-29T03:28:56.280Z,73.90
2022-07-29T03:29:56.309Z,73.90
2022-07-29T03:30:56.266Z,73.80
2022-07-29T03:31:56.209Z,73.59
2022-07-29T03:32:56.642Z,73.69
2022-07-29T03:33:56.201Z,73.69
2022-07-29T03:34:56.201Z,73.56
2022-07-29T03:35:56.202Z,73.66
2022-07-29T03:36:56.204Z,73.36
2022-07-29T03:37:56.140Z,73.56
2022-07-29T03:38:56.144Z,73.36
2022-07-29T03:39:56.110Z,73.15
2022-07-29T03:40:56.116Z,73.36
2022-07-29T03:41:56.083Z,73.05
2022-07-29T03:42:56.089Z,73.25
2022-07-29T03:43:56.062Z,72.95
2022-07-29T03:44:56.136Z,72.95
2022-07-29T03:45:56.069Z,73.15
2022-07-29T03:46:56.039Z,72.95
2022-07-29T03:48:00.683Z,73.05
2022-07-29T03:48:57.025Z,73.15
2022-07-29T03:49:55.982Z,72.75
2022-07-29T03:50:55.973Z,72.95
2022-07-29T03:51:56.102Z,72.75
2022-07-29T03:52:55.950Z,73.05
2022-07-29T03:53:55.938Z,72.95
2022-07-29T03:54:55.921Z,72.95
2022-07-29T03:55:55.909Z,73.15
2022-07-29T03:56:55.900Z,72.95
2022-07-29T03:57:55.891Z,72.95
2022-07-29T03:58:55.869Z,72.95
2022-07-29T03:59:55.862Z,72.85
2022-07-29T04:00:55.872Z,72.75
2022-07-29T04:01:55.896Z,72.65
2022-07-29T04:02:55.831Z,72.65
2022-07-29T04:03:55.842Z,72.65
2022-07-29T04:04:55.783Z,72.65
2022-07-29T04:05:55.781Z,72.95
2022-07-29T04:06:55.764Z,72.65
2022-07-29T04:07:55.743Z,72.85
2022-07-29T04:08:55.732Z,72.65
2022-07-29T04:09:55.752Z,72.65
2022-07-29T04:10:55.763Z,72.51
2022-07-29T04:12:02.556Z,72.44
2022-07-29T04:12:56.670Z,72.51
2022-07-29T04:13:55.652Z,72.72
2022-07-29T04:14:55.663Z,72.72
2022-07-29T04:15:55.693Z,72.51
2022-07-29T04:16:55.632Z,72.41
2022-07-29T04:17:55.613Z,72.51
2022-07-29T04:18:55.593Z,72.31
2022-07-29T04:19:55.605Z,72.61
2022-07-29T04:20:55.576Z,72.61
2022-07-29T04:21:55.574Z,72.31
2022-07-29T04:22:55.595Z,72.38
2022-07-29T04:23:55.544Z,72.17
2022-07-29T04:24:57.992Z,71.87
2022-07-29T04:25:55.527Z,71.67
2022-07-29T04:26:55.505Z,71.87
2022-07-29T04:27:55.496Z,71.87
2022-07-29T04:28:55.498Z,71.47
2022-07-29T04:29:57.419Z,71.23
2022-07-29T04:30:55.456Z,70.93
2022-07-29T04:31:55.455Z,71.23
2022-07-29T04:32:55.515Z,71.23
2022-07-29T04:33:55.494Z,71.03
2022-07-29T04:34:55.382Z,71.13
2022-07-29T04:35:55.374Z,71.03
2022-07-29T04:36:55.384Z,70.83
2022-07-29T04:37:55.346Z,70.73
2022-07-29T04:38:55.393Z,70.93
2022-07-29T04:39:55.337Z,70.93
2022-07-29T04:40:55.397Z,70.53
2022-07-29T04:41:56.479Z,70.83
2022-07-29T04:42:55.278Z,70.32
2022-07-29T04:43:55.286Z,70.09
2022-07-29T04:44:55.272Z,70.49
2022-07-29T04:45:55.284Z,70.69
2022-07-29T04:46:55.236Z,70.59
2022-07-29T04:47:55.223Z,70.69
2022-07-29T04:48:55.289Z,70.59
2022-07-29T04:49:55.194Z,70.49
2022-07-29T04:50:55.171Z,70.39
2022-07-29T04:51:55.180Z,70.09
2022-07-29T04:52:55.147Z,69.89
2022-07-29T04:53:55.137Z,70.19
2022-07-29T04:54:55.188Z,70.29
2022-07-29T04:55:55.126Z,69.89
2022-07-29T04:56:55.102Z,70.19
2022-07-29T04:57:55.088Z,70.39
2022-07-29T04:58:55.087Z,69.89
2022-07-29T04:59:55.058Z,70.19
2022-07-29T05:00:55.040Z,70.29
2022-07-29T05:01:55.118Z,70.19
2022-07-29T05:02:55.088Z,69.98
2022-07-29T05:04:00.156Z,70.06
2022-07-29T05:04:55.998Z,70.15
2022-07-29T05:05:54.982Z,70.26
2022-07-29T05:06:54.970Z,69.98
2022-07-29T05:07:54.972Z,70.06
2022-07-29T05:08:54.939Z,70.46
2022-07-29T05:09:54.959Z,69.95
2022-07-29T05:10:54.919Z,69.85
2022-07-29T05:11:54.901Z,70.15
2022-07-29T05:12:54.890Z,70.26
2022-07-29T05:13:54.893Z,69.75
2022-07-29T05:14:54.867Z,69.15
2022-07-29T05:15:56.883Z,69.21
2022-07-29T05:16:54.853Z,69.42
2022-07-29T05:17:54.832Z,69.11
2022-07-29T05:18:54.820Z,68.91
2022-07-29T05:19:54.850Z,69.21
2022-07-29T05:20:54.790Z,68.48
2022-07-29T05:21:54.782Z,68.27
2022-07-29T05:22:54.784Z,67.77
2022-07-29T05:23:54.761Z,67.57
2022-07-29T05:24:54.732Z,67.57
2022-07-29T05:25:54.769Z,67.77
2022-07-29T05:26:54.701Z,67.87
2022-07-29T05:27:54.699Z,68.04
2022-07-29T05:28:54.700Z,67.03
2022-07-29T05:29:54.669Z,67.84
2022-07-29T05:30:54.734Z,67.94
2022-07-29T05:31:54.640Z,66.63
2022-07-29T05:32:54.666Z,66.53
2022-07-29T05:33:54.630Z,67.03
2022-07-29T05:34:54.613Z,66.80
2022-07-29T05:35:59.930Z,66.09
2022-07-29T05:36:55.583Z,65.79
2022-07-29T05:37:54.569Z,65.86
2022-07-29T05:38:54.553Z,66.06
2022-07-29T05:39:56.705Z,66.67
2022-07-29T05:40:54.541Z,65.93
2022-07-29T05:41:54.561Z,65.02
2022-07-29T05:42:54.513Z,64.29
2022-07-29T05:43:54.483Z,65.19
2022-07-29T05:44:54.480Z,64.69
2022-07-29T05:45:54.489Z,64.59
2022-07-29T05:46:54.451Z,64.69
2022-07-29T05:47:54.432Z,64.39
2022-07-29T05:48:54.459Z,64.89
2022-07-29T05:49:54.415Z,64.19
2022-07-29T05:50:54.393Z,64.79
2022-07-29T05:51:54.385Z,65.09
2022-07-29T05:52:54.384Z,64.66
2022-07-29T05:53:54.385Z,64.36
2022-07-29T05:54:54.344Z,63.79
2022-07-29T05:55:54.338Z,64.36
2022-07-29T05:56:54.314Z,64.76
2022-07-29T05:57:54.383Z,64.29
2022-07-29T05:58:54.284Z,63.89
2022-07-29T05:59:54.363Z,63.59
2022-07-29T06:00:54.256Z,63.48
2022-07-29T06:01:54.286Z,64.59
2022-07-29T06:02:54.235Z,63.99
2022-07-29T06:03:54.263Z,63.79
2022-07-29T06:04:54.269Z,63.18
2022-07-29T06:05:54.214Z,63.89
2022-07-29T06:06:54.177Z,63.89
2022-07-29T06:07:54.175Z,63.59
2022-07-29T06:08:54.165Z,63.85
2022-07-29T06:09:54.146Z,63.25
2022-07-29T06:10:54.146Z,63.56
2022-07-29T06:11:54.135Z,63.76
2022-07-29T06:12:54.104Z,63.15
2022-07-29T06:13:54.093Z,63.45
2022-07-29T06:14:54.389Z,63.56
2022-07-29T06:15:54.117Z,63.35
2022-07-29T06:16:54.060Z,62.75
2022-07-29T06:18:00.496Z,63.35
2022-07-29T06:18:55.047Z,63.45
2022-07-29T06:19:54.029Z,63.65
2022-07-29T06:20:54.008Z,63.65
2022-07-29T06:21:53.997Z,63.73
2022-07-29T06:22:53.979Z,62.42
2022-07-29T06:23:53.958Z,63.12
2022-07-29T06:24:53.951Z,62.42
2022-07-29T06:25:53.987Z,62.32
2022-07-29T06:26:53.926Z,62.82
2022-07-29T06:27:53.909Z,62.59
2022-07-29T06:28:53.908Z,62.69
2022-07-29T06:29:53.947Z,62.08
2022-07-29T06:30:53.918Z,62.16
2022-07-29T06:31:53.868Z,61.46
2022-07-29T06:32:53.842Z,61.22
2022-07-29T06:33:54.608Z,61.52
2022-07-29T06:35:02.725Z,61.13
2022-07-29T06:35:55.262Z,60.32
2022-07-29T06:36:53.829Z,60.89
2022-07-29T06:37:55.294Z,60.80
2022-07-29T06:38:54.758Z,60.36
2022-07-29T06:39:57.903Z,60.06
2022-07-29T06:40:54.739Z,59.46
2022-07-29T06:41:53.798Z,58.73
2022-07-29T06:42:53.713Z,59.23
2022-07-29T06:43:54.471Z,58.94
2022-07-29T06:44:53.691Z,58.53
2022-07-29T06:45:53.724Z,59.53
2022-07-29T06:46:53.671Z,59.23
2022-07-29T06:47:53.673Z,59.70
2022-07-29T06:48:53.791Z,58.30
2022-07-29T06:49:53.704Z,58.81
2022-07-29T06:50:53.618Z,58.48
2022-07-29T06:51:53.602Z,58.28
2022-07-29T06:52:53.594Z,58.07
2022-07-29T06:54:00.331Z,58.18
2022-07-29T06:54:54.560Z,57.98
2022-07-29T06:55:53.550Z,57.37
2022-07-29T06:56:53.521Z,57.37
2022-07-29T06:57:53.511Z,57.48
2022-07-29T06:58:53.493Z,57.28
2022-07-29T06:59:53.509Z,57.17
2022-07-29T07:00:53.534Z,58.07
2022-07-29T07:01:53.476Z,57.95
2022-07-29T07:02:53.493Z,56.85
2022-07-29T07:03:53.444Z,57.05
2022-07-29T07:04:53.467Z,57.55
2022-07-29T07:05:53.424Z,57.05
2022-07-29T07:06:53.414Z,56.74
2022-07-29T07:07:53.392Z,57.65
2022-07-29T07:08:53.371Z,57.65
2022-07-29T07:09:53.362Z,57.45
2022-07-29T07:10:53.374Z,56.82
2022-07-29T07:11:53.334Z,57.42
2022-07-29T07:12:53.314Z,56.62
2022-07-29T07:13:53.304Z,56.62
2022-07-29T07:15:00.336Z,56.82
2022-07-29T07:15:53.288Z,57.12
2022-07-29T07:16:53.336Z,56.72
2022-07-29T07:17:53.396Z,56.72
2022-07-29T07:18:53.257Z,56.72
2022-07-29T07:19:53.228Z,56.92
2022-07-29T07:20:53.238Z,58.22
2022-07-29T07:21:53.217Z,57.42
2022-07-29T07:22:53.210Z,56.42
2022-07-29T07:23:53.180Z,57.02
2022-07-29T07:24:53.169Z,58.12
2022-07-29T07:25:53.169Z,56.92
2022-07-29T07:26:53.140Z,56.72
2022-07-29T07:27:53.162Z,57.22
2022-07-29T07:28:53.120Z,56.82
2022-07-29T07:29:53.109Z,56.89
2022-07-29T07:30:53.141Z,57.09
2022-07-29T07:31:57.509Z,56.49
2022-07-29T07:32:54.105Z,56.27
2022-07-29T07:33:53.060Z,56.16
2022-07-29T07:34:53.049Z,55.59
2022-07-29T07:35:53.041Z,55.99
2022-07-29T07:36:53.010Z,55.89
2022-07-29T07:37:53.022Z,56.39
2022-07-29T07:38:53.035Z,56.20
2022-07-29T07:39:52.972Z,56.09
2022-07-29T07:40:52.959Z,56.29
2022-07-29T07:41:52.950Z,56.72
2022-07-29T07:42:52.936Z,56.42
2022-07-29T07:43:52.932Z,56.42
2022-07-29T07:45:12.681Z,56.62
2022-07-29T07:45:53.976Z,56.52
2022-07-29T07:46:52.953Z,56.82
2022-07-29T07:47:52.882Z,55.52
2022-07-29T07:48:52.924Z,55.89
2022-07-29T07:49:52.858Z,55.49
2022-07-29T07:50:52.823Z,55.79
2022-07-29T07:51:52.802Z,55.07
2022-07-29T07:52:52.796Z,54.77
2022-07-29T07:53:52.801Z,55.27
2022-07-29T07:54:52.773Z,54.77
2022-07-29T07:56:09.916Z,54.44
2022-07-29T07:56:53.747Z,54.04
2022-07-29T07:57:52.774Z,54.04
2022-07-29T07:58:52.714Z,54.04
2022-07-29T07:59:52.727Z,54.04
2022-07-29T08:00:52.758Z,54.34
2022-07-29T08:01:56.201Z,54.71
2022-07-29T08:02:52.699Z,54.32
2022-07-29T08:03:52.644Z,53.52
2022-07-29T08:04:52.626Z,53.52
2022-07-29T08:05:52.663Z,53.31
2022-07-29T08:06:52.634Z,53.61
2022-07-29T08:07:52.586Z,53.52
2022-07-29T08:08:56.223Z,53.72
2022-07-29T08:09:52.555Z,53.72
2022-07-29T08:10:52.579Z,53.81
2022-07-29T08:11:52.578Z,53.92
2022-07-29T08:12:52.545Z,53.81
2022-07-29T08:13:52.518Z,52.99
2022-07-29T08:14:52.532Z,52.69
2022-07-29T08:15:52.507Z,52.79
2022-07-29T08:16:52.650Z,52.67
2022-07-29T08:17:52.488Z,53.27
2022-07-29T08:18:52.466Z,52.07
2022-07-29T08:19:52.436Z,51.87
2022-07-29T08:20:52.427Z,51.37
2022-07-29T08:21:52.691Z,51.65
2022-07-29T08:22:52.388Z,51.84
2022-07-29T08:23:58.748Z,51.95
2022-07-29T08:24:53.401Z,51.05
2022-07-29T08:25:52.433Z,51.42
2022-07-29T08:26:52.360Z,50.73
2022-07-29T08:27:52.340Z,51.42
2022-07-29T08:28:52.332Z,50.70
2022-07-29T08:29:52.320Z,50.30
2022-07-29T08:30:52.318Z,49.90
2022-07-29T08:31:52.602Z,50.30
2022-07-29T08:32:54.070Z,50.50
2022-07-29T08:33:52.269Z,50.40
2022-07-29T08:34:52.312Z,50.00
2022-07-29T08:35:52.231Z,49.88
2022-07-29T08:36:52.219Z,49.78
2022-07-29T08:37:52.200Z,49.38
2022-07-29T08:38:52.211Z,49.48
2022-07-29T08:39:52.181Z,49.68
2022-07-29T08:40:52.172Z,49.88
2022-07-29T08:41:53.082Z,49.36
2022-07-29T08:42:52.144Z,49.16
2022-07-29T08:43:52.132Z,49.36
2022-07-29T08:44:52.124Z,48.36
2022-07-29T08:45:52.186Z,48.26
2022-07-29T08:46:52.113Z,48.26
2022-07-29T08:47:52.074Z,47.96
2022-07-29T08:48:52.132Z,48.36
2022-07-29T08:49:52.104Z,49.06
2022-07-29T08:50:52.053Z,48.04
2022-07-29T08:51:52.032Z,47.84
2022-07-29T08:52:55.376Z,47.94
2022-07-29T08:53:53.006Z,48.14
2022-07-29T08:54:52.004Z,48.14
2022-07-29T08:55:51.984Z,48.24
2022-07-29T08:56:51.963Z,48.34
2022-07-29T08:57:54.382Z,48.32
2022-07-29T08:58:53.457Z,48.22
2022-07-29T08:59:51.925Z,48.11
2022-07-29T09:00:51.950Z,48.32
2022-07-29T09:01:52.111Z,47.89
2022-07-29T09:02:51.884Z,47.20
2022-07-29T09:03:51.915Z,46.80
2022-07-29T09:04:51.876Z,46.50
2022-07-29T09:05:51.847Z,46.90
2022-07-29T09:06:51.843Z,46.80
2022-07-29T09:07:51.819Z,47.10
2022-07-29T09:08:51.796Z,47.20
2022-07-29T09:09:51.808Z,46.90
2022-07-29T09:10:51.827Z,46.60
2022-07-29T09:11:52.186Z,46.80
2022-07-29T09:12:51.749Z,46.88
2022-07-29T09:13:51.747Z,46.68
2022-07-29T09:14:51.729Z,46.58
2022-07-29T09:15:51.722Z,45.68
2022-07-29T09:17:01.155Z,46.19
2022-07-29T09:17:52.689Z,45.68
2022-07-29T09:18:51.678Z,46.19
2022-07-29T09:19:51.690Z,46.60
2022-07-29T09:20:51.651Z,46.80
2022-07-29T09:21:51.671Z,46.31
2022-07-29T09:22:51.628Z,46.78
2022-07-29T09:23:51.609Z,46.78
2022-07-29T09:24:51.600Z,45.49
2022-07-29T09:25:51.618Z,45.59
2022-07-29T09:26:51.745Z,46.06
2022-07-29T09:27:51.574Z,45.76
2022-07-29T09:28:51.553Z,45.47
2022-07-29T09:29:51.542Z,46.06
2022-07-29T09:30:51.521Z,45.74
2022-07-29T09:31:51.580Z,44.85
2022-07-29T09:32:51.481Z,44.55
2022-07-29T09:33:51.480Z,44.75
2022-07-29T09:34:54.600Z,44.93
2022-07-29T09:35:56.574Z,44.43
2022-07-29T09:36:51.484Z,44.23
2022-07-29T09:37:51.413Z,43.84
2022-07-29T09:38:51.445Z,43.44
2022-07-29T09:39:51.421Z,43.91
2022-07-29T09:40:51.396Z,43.52
2022-07-29T09:41:51.378Z,43.42
2022-07-29T09:42:51.373Z,42.52
2022-07-29T09:43:51.355Z,43.40
2022-07-29T09:44:51.368Z,43.10
2022-07-29T09:45:51.347Z,42.41
2022-07-29T09:46:51.360Z,42.29
2022-07-29T09:47:51.296Z,42.38
2022-07-29T09:48:51.359Z,42.17
2022-07-29T09:49:51.265Z,42.17
2022-07-29T09:50:51.256Z,41.36
2022-07-29T09:51:51.235Z,41.33
2022-07-29T09:52:51.236Z,42.03
2022-07-29T09:53:51.207Z,40.33
2022-07-29T09:54:51.210Z,40.41
2022-07-29T09:55:51.711Z,40.70
2022-07-29T09:56:51.213Z,40.41
2022-07-29T09:57:51.169Z,39.12
2022-07-29T09:58:51.157Z,39.40
2022-07-29T09:59:51.137Z,39.11
2022-07-29T10:00:51.221Z,38.81
2022-07-29T10:01:51.119Z,38.51
2022-07-29T10:02:51.144Z,38.81
2022-07-29T10:03:51.172Z,37.92
2022-07-29T10:04:51.078Z,38.53
2022-07-29T10:05:51.059Z,38.53
2022-07-29T10:06:51.068Z,38.13
2022-07-29T10:07:53.882Z,38.13
2022-07-29T10:08:51.039Z,38.53
2022-07-29T10:09:51.008Z,38.33
2022-07-29T10:10:51.020Z,38.31
2022-07-29T10:11:51.001Z,38.02
2022-07-29T10:12:51.011Z,37.72
2022-07-29T10:13:50.959Z,37.11
2022-07-29T10:14:50.981Z,37.03
2022-07-29T10:15:50.971Z,36.73
2022-07-29T10:16:50.923Z,37.41
2022-07-29T10:17:50.923Z,36.83
2022-07-29T10:18:50.892Z,37.13
2022-07-29T10:19:50.882Z,37.23
2022-07-29T10:20:50.874Z,37.23
2022-07-29T10:21:54.990Z,37.72
2022-07-29T10:22:53.792Z,37.43
2022-07-29T10:23:50.823Z,37.72
2022-07-29T10:24:50.822Z,37.70
2022-07-29T10:25:50.810Z,37.90
2022-07-29T10:26:50.811Z,37.01
2022-07-29T10:27:50.774Z,37.41
2022-07-29T10:28:50.774Z,37.11
2022-07-29T10:29:50.756Z,36.91
2022-07-29T10:30:50.743Z,36.61
2022-07-29T10:31:50.772Z,36.54
2022-07-29T10:32:54.099Z,36.83
2022-07-29T10:33:50.705Z,37.23
2022-07-29T10:34:50.738Z,37.23
2022-07-29T10:35:50.676Z,38.20
2022-07-29T10:36:50.677Z,37.80
2022-07-29T10:37:50.648Z,37.09
2022-07-29T10:38:50.665Z,37.59
2022-07-29T10:39:50.624Z,37.09
2022-07-29T10:40:50.637Z,36.50
2022-07-29T10:41:50.598Z,36.88
2022-07-29T10:42:50.626Z,36.68
2022-07-29T10:43:51.341Z,35.40
2022-07-29T10:44:50.607Z,35.69
2022-07-29T10:45:50.547Z,35.99
2022-07-29T10:46:50.604Z,35.79
2022-07-29T10:47:50.518Z,35.99
2022-07-29T10:48:50.541Z,36.48
2022-07-29T10:49:50.488Z,36.48
2022-07-29T10:50:50.509Z,36.98
2022-07-29T10:51:50.521Z,35.69
2022-07-29T10:52:50.450Z,35.52
2022-07-29T10:53:50.460Z,36.21
2022-07-29T10:54:50.440Z,36.60
2022-07-29T10:55:50.452Z,36.30
2022-07-29T10:56:50.412Z,36.11
2022-07-29T10:57:54.672Z,36.00
2022-07-29T10:58:52.697Z,36.30
2022-07-29T10:59:50.401Z,36.60
2022-07-29T11:00:50.437Z,36.78
2022-07-29T11:01:53.367Z,36.88
2022-07-29T11:02:50.719Z,36.68
2022-07-29T11:04:51.330Z,36.90
2022-07-29T11:05:50.291Z,36.70
2022-07-29T11:06:50.302Z,37.49
2022-07-29T11:07:50.274Z,37.88
2022-07-29T11:08:50.307Z,36.50
2022-07-29T11:09:50.253Z,36.78
2022-07-29T11:10:50.392Z,36.78
2022-07-29T11:11:51.525Z,35.88
2022-07-29T11:12:50.235Z,35.38
2022-07-29T11:13:50.204Z,35.36
2022-07-29T11:14:50.173Z,35.46
2022-07-29T11:15:50.165Z,35.74
2022-07-29T11:16:50.186Z,36.04
2022-07-29T11:17:52.287Z,36.13
2022-07-29T11:18:50.135Z,35.94
2022-07-29T11:19:52.305Z,36.23
2022-07-29T11:20:50.147Z,36.04
2022-07-29T11:22:05.411Z,36.05
2022-07-29T11:22:51.126Z,36.05
2022-07-29T11:23:50.080Z,36.76
2022-07-29T11:24:50.517Z,37.26
2022-07-29T11:25:52.443Z,37.26
2022-07-29T11:26:50.039Z,37.15
2022-07-29T11:27:50.042Z,37.15
2022-07-29T11:28:50.045Z,37.45
2022-07-29T11:29:49.993Z,37.74
2022-07-29T11:30:49.977Z,37.85
2022-07-29T11:31:49.970Z,38.14
2022-07-29T11:32:49.955Z,37.93
2022-07-29T11:33:56.193Z,37.73
2022-07-29T11:34:50.988Z,37.91
2022-07-29T11:36:50.911Z,38.10
2022-07-29T11:37:52.709Z,38.38
2022-07-29T11:38:51.352Z,38.09
2022-07-29T11:39:49.884Z,37.79
2022-07-29T11:40:49.850Z,37.10
2022-07-29T11:41:49.839Z,37.69
2022-07-29T11:42:51.966Z,38.28
2022-07-29T11:43:50.694Z,38.28
2022-07-29T11:44:49.811Z,38.56
2022-07-29T11:45:49.811Z,37.87
2022-07-29T11:46:50.082Z,37.87
2022-07-29T11:47:49.793Z,37.28
2022-07-29T11:48:49.789Z,37.48
2022-07-29T11:49:49.752Z,37.55
2022-07-29T11:50:49.784Z,37.76
2022-07-29T11:51:49.713Z,38.24
2022-07-29T11:52:50.287Z,37.55
2022-07-29T11:53:52.491Z,38.05
2022-07-29T11:54:57.232Z,37.65
2022-07-29T11:55:52.117Z,37.85
2022-07-29T11:56:49.644Z,38.17
2022-07-29T11:58:03.736Z,37.77
2022-07-29T11:58:50.634Z,37.87
2022-07-29T11:59:49.616Z,37.77
2022-07-29T12:00:49.617Z,37.38
2022-07-29T12:01:49.595Z,37.77
2022-07-29T12:02:49.578Z,37.95
2022-07-29T12:03:49.642Z,38.05
2022-07-29T12:04:49.546Z,38.34
2022-07-29T12:05:51.866Z,38.34
2022-07-29T12:06:49.551Z,37.55
2022-07-29T12:07:49.515Z,37.76
2022-07-29T12:08:49.510Z,37.55
2022-07-29T12:09:49.489Z,37.08
2022-07-29T12:10:49.476Z,37.57
2022-07-29T12:11:49.448Z,37.18
2022-07-29T12:12:49.458Z,37.40
2022-07-29T12:13:49.606Z,37.40
2022-07-29T12:14:49.418Z,38.18
2022-07-29T12:15:49.418Z,38.26
2022-07-29T12:16:49.441Z,38.46
2022-07-29T12:17:49.393Z,37.67
2022-07-29T12:18:49.383Z,38.66
2022-07-29T12:19:50.996Z,38.46
2022-07-29T12:20:49.374Z,38.17
2022-07-29T12:21:53.693Z,38.46
2022-07-29T12:22:50.347Z,38.56
2022-07-29T12:23:49.311Z,38.17
2022-07-29T12:24:49.313Z,38.17
2022-07-29T12:25:49.646Z,37.97
2022-07-29T12:26:49.260Z,38.07
2022-07-29T12:27:49.252Z,38.56
2022-07-29T12:28:49.250Z,38.34
2022-07-29T12:29:49.231Z,38.74
2022-07-29T12:30:49.212Z,38.15
2022-07-29T12:31:49.298Z,37.93
2022-07-29T12:32:49.189Z,38.34
2022-07-29T12:33:49.175Z,38.05
2022-07-29T12:34:49.234Z,38.62
2022-07-29T12:36:03.480Z,37.93
2022-07-29T12:36:50.155Z,38.03
2022-07-29T12:37:49.125Z,37.84
2022-07-29T12:38:49.106Z,38.03
2022-07-29T12:39:49.108Z,37.93
2022-07-29T12:40:49.099Z,37.95
2022-07-29T12:41:49.096Z,38.17
2022-07-29T12:42:49.056Z,38.56
2022-07-29T12:43:49.064Z,38.26
2022-07-29T12:44:49.025Z,37.95
2022-07-29T12:45:49.019Z,38.34
2022-07-29T12:46:49.028Z,37.65
2022-07-29T12:47:49.016Z,37.34
2022-07-29T12:48:49.017Z,37.34
2022-07-29T12:49:48.977Z,36.83
2022-07-29T12:50:48.968Z,36.44
2022-07-29T12:51:48.951Z,36.32
2022-07-29T12:52:48.965Z,36.13
2022-07-29T12:53:48.941Z,35.74
2022-07-29T12:54:48.901Z,35.91
2022-07-29T12:55:48.959Z,36.03